Time;durP1;ratioP1;P1;durP2;ratioP2;P2;SDS_P1;SDS_P2;PMS_P1;PMS_P2;Temp;Humidity;BMP_temperature;BMP_pressure;BME280_temperature;BME280_humidity;BME280_pressure;Samples;Min_cycle;Max_cycle;Signal;HPM_P1;HPM_P2
2023/10/28 00:00:05;;;;;;;42.33;17.85;;;20.80;99.90;;;;;;5144452;28;20434;-80
2023/10/28 00:02:36;;;;;;;56.05;17.40;;;20.90;99.90;;;;;;5146252;28;20114;-83
2023/10/28 00:05:07;;;;;;;49.42;19.45;;;20.80;99.90;;;;;;5148376;28;20460;-76
2023/10/28 00:07:38;;;;;;;48.33;17.35;;;20.70;99.90;;;;;;5148085;28;20027;-84
2023/10/28 00:10:09;;;;;;;52.47;18.05;;;20.70;99.90;;;;;;5148159;28;20058;-85
2023/10/28 00:12:41;;;;;;;42.83;17.45;;;20.80;99.90;;;;;;5148155;28;20085;-84
2023/10/28 00:15:13;;;;;;;50.75;16.98;;;20.80;99.90;;;;;;5148168;28;20019;-84
2023/10/28 00:17:49;;;;;;;46.08;16.52;;;20.70;99.90;;;;;;5148353;28;20122;-84
2023/10/28 00:20:21;;;;;;;40.10;16.52;;;20.70;99.90;;;;;;5147695;28;20415;-85
2023/10/28 00:22:54;;;;;;;43.08;16.52;;;20.70;99.90;;;;;;5147788;28;20057;-85
2023/10/28 00:25:27;;;;;;;40.80;16.35;;;20.80;99.90;;;;;;5147284;28;20100;-78
2023/10/28 00:27:58;;;;;;;47.60;17.23;;;20.70;99.90;;;;;;5146909;28;20077;-83
2023/10/28 00:30:29;;;;;;;45.15;17.15;;;20.70;99.90;;;;;;5137058;28;20031;-79
2023/10/28 00:33:00;;;;;;;48.67;16.48;;;20.70;99.90;;;;;;5126728;29;20034;-84
2023/10/28 00:35:31;;;;;;;45.42;15.73;;;20.70;99.90;;;;;;5126929;29;20506;-83
2023/10/28 00:38:02;;;;;;;45.40;15.13;;;20.70;99.90;;;;;;5126807;29;20158;-84
2023/10/28 00:40:32;;;;;;;48.45;16.60;;;20.70;99.90;;;;;;5127919;28;20122;-85
2023/10/28 00:43:10;;;;;;;43.47;15.10;;;20.70;99.90;;;;;;5127751;29;20035;-84
2023/10/28 00:45:41;;;;;;;38.00;15.30;;;20.80;99.90;;;;;;5127557;29;20042;-82
2023/10/28 00:48:12;;;;;;;43.55;15.98;;;20.70;99.90;;;;;;5127453;29;20435;-84
2023/10/28 00:50:44;;;;;;;46.70;15.50;;;20.80;99.90;;;;;;5127323;28;20083;-85
2023/10/28 00:53:17;;;;;;;41.15;15.35;;;20.80;99.90;;;;;;5127528;29;20031;-83
2023/10/28 00:55:51;;;;;;;40.63;14.43;;;20.60;99.90;;;;;;5127733;29;20025;-83
2023/10/28 00:58:23;;;;;;;39.75;15.45;;;20.80;99.90;;;;;;5127378;28;20031;-83
2023/10/28 01:00:53;;;;;;;44.17;15.57;;;20.70;99.90;;;;;;5127449;29;20023;-80
2023/10/28 01:03:25;;;;;;;44.63;14.82;;;20.70;99.90;;;;;;5127411;29;20032;-84
2023/10/28 01:05:56;;;;;;;40.17;15.00;;;20.70;99.90;;;;;;5127073;29;20110;-81
2023/10/28 01:08:27;;;;;;;45.17;15.57;;;20.60;99.90;;;;;;5126887;28;20039;-84
2023/10/28 01:11:04;;;;;;;43.53;14.40;;;20.70;99.90;;;;;;5127404;29;20050;-83
2023/10/28 01:13:35;;;;;;;39.78;14.68;;;20.60;99.90;;;;;;5126387;28;20038;-80
2023/10/28 01:16:08;;;;;;;39.53;14.85;;;20.70;99.90;;;;;;5126550;29;20031;-80
2023/10/28 01:18:38;;;;;;;35.40;14.38;;;20.70;99.90;;;;;;5127052;29;20027;-84
2023/10/28 01:21:12;;;;;;;41.80;14.15;;;20.70;99.90;;;;;;5126204;29;20107;-81
2023/10/28 01:23:42;;;;;;;35.10;14.93;;;20.60;99.90;;;;;;5125894;29;20031;-85
2023/10/28 01:26:13;;;;;;;42.90;14.82;;;20.60;99.90;;;;;;5125862;29;20548;-84
2023/10/28 01:28:44;;;;;;;35.90;14.02;;;20.60;99.90;;;;;;5126027;28;20031;-84
2023/10/28 01:31:17;;;;;;;40.88;14.77;;;20.60;99.90;;;;;;5126158;28;20039;-82
2023/10/28 01:33:48;;;;;;;36.72;14.68;;;20.60;99.90;;;;;;5126139;29;20475;-84
2023/10/28 01:36:19;;;;;;;33.90;13.73;;;20.60;99.90;;;;;;5127063;29;20074;-84
2023/10/28 01:38:50;;;;;;;43.05;15.43;;;20.60;99.90;;;;;;5126876;29;20045;-83
2023/10/28 01:41:23;;;;;;;35.90;14.52;;;20.60;99.90;;;;;;5126862;29;20023;-74
2023/10/28 01:44:03;;;;;;;43.70;13.25;;;20.60;99.90;;;;;;5126702;29;20085;-83
2023/10/28 01:46:41;;;;;;;;;;;20.50;99.90;;;;;;5127330;29;20023;-76
2023/10/28 01:49:15;;;;;;;42.28;14.20;;;20.40;99.90;;;;;;5126894;29;20371;-77
2023/10/28 01:51:52;;;;;;;39.38;13.70;;;20.50;99.90;;;;;;5126601;28;20054;-72
2023/10/28 01:54:26;;;;;;;47.33;14.88;;;20.40;99.90;;;;;;5126883;29;20086;-74
2023/10/28 01:57:07;;;;;;;40.10;14.15;;;20.40;99.90;;;;;;5109087;29;20030;-73
2023/10/28 01:59:47;;;;;;;41.47;15.23;;;20.40;99.90;;;;;;5126635;29;20378;-73
2023/10/28 02:02:18;;;;;;;40.05;15.00;;;20.30;99.90;;;;;;5109856;29;20022;-84
2023/10/28 02:04:51;;;;;;;31.27;14.35;;;20.30;99.90;;;;;;5126276;29;20471;-83
2023/10/28 02:07:22;;;;;;;43.03;15.70;;;20.40;99.90;;;;;;5125971;29;20033;-82
2023/10/28 02:09:53;;;;;;;36.92;14.82;;;20.30;99.90;;;;;;5125575;29;20462;-82
2023/10/28 02:12:24;;;;;;;38.78;13.07;;;20.40;99.90;;;;;;5125400;29;20038;-83
2023/10/28 02:14:55;;;;;;;34.63;12.30;;;20.30;99.90;;;;;;5125816;29;20434;-83
2023/10/28 02:17:26;;;;;;;44.15;11.63;;;20.40;99.90;;;;;;5125016;28;20031;-81
2023/10/28 02:19:57;;;;;;;34.85;10.85;;;20.20;99.90;;;;;;5125101;29;20034;-83
2023/10/28 02:22:28;;;;;;;39.33;11.73;;;20.20;99.90;;;;;;5124804;29;20023;-83
2023/10/28 02:24:59;;;;;;;39.75;12.15;;;20.20;99.90;;;;;;5124750;28;20091;-80
2023/10/28 02:27:30;;;;;;;47.40;12.52;;;20.10;99.90;;;;;;5124739;29;20628;-83
2023/10/28 02:30:01;;;;;;;35.58;11.95;;;20.20;99.90;;;;;;5124647;29;20031;-84
2023/10/28 02:32:32;;;;;;;39.05;11.57;;;20.20;99.90;;;;;;5108270;29;20031;-84
2023/10/28 02:35:03;;;;;;;39.90;11.40;;;20.20;99.90;;;;;;5125532;29;20058;-83
2023/10/28 02:37:34;;;;;;;35.25;12.07;;;20.20;99.90;;;;;;5125429;29;20026;-84
2023/10/28 02:40:08;;;;;;;39.20;12.25;;;20.20;99.90;;;;;;5108073;29;20039;-83
2023/10/28 02:42:39;;;;;;;39.13;12.50;;;20.20;99.90;;;;;;5125362;29;20030;-84
2023/10/28 02:45:10;;;;;;;38.85;12.02;;;20.10;99.90;;;;;;5125397;29;20027;-84
2023/10/28 02:47:41;;;;;;;41.30;12.98;;;20.10;99.90;;;;;;5125677;29;20031;-83
2023/10/28 02:50:12;;;;;;;42.17;12.35;;;20.10;99.90;;;;;;5125385;29;20035;-85
2023/10/28 02:52:43;;;;;;;45.05;13.13;;;20.00;99.90;;;;;;5125270;29;20031;-83
2023/10/28 02:55:15;;;;;;;39.50;10.98;;;20.00;99.90;;;;;;5125333;29;20037;-84
2023/10/28 02:57:46;;;;;;;42.90;11.77;;;19.80;99.90;;;;;;5108164;29;20546;-80
2023/10/28 03:00:17;;;;;;;37.72;12.82;;;19.80;99.90;;;;;;5125140;29;20106;-82
2023/10/28 03:02:48;;;;;;;35.08;11.65;;;19.80;99.90;;;;;;5125234;29;20038;-84
2023/10/28 03:05:24;;;;;;;39.65;11.65;;;19.70;99.90;;;;;;5125289;29;20033;-84
2023/10/28 03:07:55;;;;;;;35.63;10.75;;;19.70;99.90;;;;;;5124047;29;20039;-83
2023/10/28 03:10:26;;;;;;;33.03;11.10;;;19.70;99.90;;;;;;5124509;28;20043;-84
2023/10/28 03:12:56;;;;;;;34.45;11.23;;;19.60;99.90;;;;;;5123949;28;20636;-83
2023/10/28 03:15:27;;;;;;;37.15;11.95;;;19.50;99.90;;;;;;5106526;29;20678;-83
2023/10/28 03:17:58;;;;;;;32.83;12.57;;;19.40;99.90;;;;;;5123800;29;20042;-82
2023/10/28 03:20:29;;;;;;;41.90;13.88;;;19.50;99.90;;;;;;5106432;29;20542;-83
2023/10/28 03:23:00;;;;;;;37.28;13.73;;;19.40;99.90;;;;;;5123900;29;20030;-83
2023/10/28 03:25:31;;;;;;;32.40;13.48;;;19.40;99.90;;;;;;5122728;28;20355;-82
2023/10/28 03:28:04;;;;;;;34.88;14.00;;;19.40;99.90;;;;;;5164539;28;20023;-84
2023/10/28 03:30:35;;;;;;;37.22;14.25;;;19.30;99.90;;;;;;5164502;28;20070;-83
2023/10/28 03:33:05;;;;;;;34.40;14.68;;;19.20;99.90;;;;;;5164841;28;20105;-81
2023/10/28 03:35:37;;;;;;;34.40;13.45;;;19.20;99.90;;;;;;5164704;28;20486;-83
2023/10/28 03:38:07;;;;;;;34.28;13.63;;;19.10;99.90;;;;;;5146638;28;20100;-84
2023/10/28 03:40:39;;;;;;;44.08;11.43;;;19.10;99.90;;;;;;5157166;28;20031;-82
2023/10/28 03:43:10;;;;;;;27.38;11.15;;;19.10;99.90;;;;;;5124687;29;20028;-81
2023/10/28 03:45:41;;;;;;;35.13;10.90;;;19.00;99.90;;;;;;5124605;28;20086;-84
2023/10/28 03:48:12;;;;;;;29.10;10.88;;;19.10;99.90;;;;;;5124460;29;20035;-84
2023/10/28 03:50:43;;;;;;;28.08;10.38;;;18.90;99.90;;;;;;5124618;29;20038;-83
2023/10/28 03:53:14;;;;;;;30.17;11.02;;;19.00;99.90;;;;;;5126044;28;20052;-83
2023/10/28 03:55:45;;;;;;;31.42;11.38;;;19.00;99.90;;;;;;5127972;28;20043;-81
2023/10/28 03:58:15;;;;;;;32.22;10.60;;;18.90;99.90;;;;;;5124365;29;20114;-83
2023/10/28 04:00:53;;;;;;;32.60;10.32;;;18.80;99.90;;;;;;5124719;29;20063;-85
2023/10/28 04:03:24;;;;;;;33.78;10.50;;;18.70;99.90;;;;;;5124517;29;20043;-77
2023/10/28 04:05:55;;;;;;;31.55;10.73;;;18.80;99.90;;;;;;5124373;29;20027;-80
2023/10/28 04:08:26;;;;;;;41.60;12.10;;;18.80;99.90;;;;;;5124645;28;20051;-81
2023/10/28 04:10:57;;;;;;;29.17;11.23;;;18.60;99.90;;;;;;5125208;29;20042;-78
2023/10/28 04:13:28;;;;;;;33.15;11.75;;;18.50;99.90;;;;;;5125083;29;20025;-78
2023/10/28 04:15:59;;;;;;;33.53;11.68;;;18.30;99.90;;;;;;5123221;29;20027;-78
2023/10/28 04:18:30;;;;;;;31.92;10.48;;;18.30;99.90;;;;;;5123071;29;20030;-78
2023/10/28 04:21:01;;;;;;;42.08;11.55;;;18.40;99.90;;;;;;5122766;29;20066;-78
2023/10/28 04:23:31;;;;;;;41.10;11.27;;;18.20;99.90;;;;;;5123573;29;20114;-78
2023/10/28 04:26:03;;;;;;;35.70;12.05;;;18.30;99.90;;;;;;5124137;29;20035;-74
2023/10/28 04:28:34;;;;;;;40.65;11.75;;;18.40;99.90;;;;;;5123742;29;20023;-78
2023/10/28 04:31:05;;;;;;;31.67;11.25;;;18.40;99.90;;;;;;5129677;28;20074;-77
2023/10/28 04:33:36;;;;;;;33.90;11.10;;;18.50;99.90;;;;;;5142376;28;20058;-78
2023/10/28 04:36:10;;;;;;;50.15;12.25;;;18.40;99.90;;;;;;5143669;28;20030;-79
2023/10/28 04:38:41;;;;;;;31.35;12.75;;;18.40;99.90;;;;;;5130172;28;20110;-79
2023/10/28 04:41:12;;;;;;;33.67;11.85;;;18.40;99.90;;;;;;5124878;28;20032;-78
2023/10/28 04:43:42;;;;;;;37.45;12.65;;;18.30;99.90;;;;;;5143620;28;20113;-77
2023/10/28 04:46:13;;;;;;;35.25;12.52;;;18.30;99.90;;;;;;5143783;28;20423;-77
2023/10/28 04:48:46;;;;;;;38.35;13.45;;;18.40;99.90;;;;;;5143921;28;20062;-78
2023/10/28 04:51:17;;;;;;;38.10;14.25;;;18.40;99.90;;;;;;5147227;28;20042;-78
2023/10/28 04:53:48;;;;;;;33.80;13.05;;;18.30;99.90;;;;;;5147203;28;20027;-78
2023/10/28 04:56:18;;;;;;;34.60;11.93;;;18.50;99.90;;;;;;5140916;28;20035;-76
2023/10/28 04:58:49;;;;;;;36.88;12.68;;;18.60;99.90;;;;;;5127005;29;20019;-78
2023/10/28 05:01:21;;;;;;;40.38;11.75;;;18.50;99.90;;;;;;5126704;29;20035;-76
2023/10/28 05:03:52;;;;;;;37.50;13.68;;;18.50;99.90;;;;;;5108744;29;20415;-75
2023/10/28 05:06:23;;;;;;;41.88;13.20;;;18.60;99.90;;;;;;5125369;29;20039;-75
2023/10/28 05:08:53;;;;;;;33.55;10.95;;;18.60;99.90;;;;;;5123875;28;20128;-75
2023/10/28 05:11:25;;;;;;;36.33;11.95;;;18.70;99.90;;;;;;5125355;29;20047;-75
2023/10/28 05:13:56;;;;;;;32.63;12.05;;;18.70;99.90;;;;;;5125892;29;20041;-75
2023/10/28 05:16:27;;;;;;;36.78;12.23;;;18.90;99.90;;;;;;5125689;29;20019;-75
2023/10/28 05:18:57;;;;;;;42.58;12.68;;;18.90;99.90;;;;;;5126165;29;20571;-74
2023/10/28 05:21:28;;;;;;;33.00;12.00;;;19.00;99.90;;;;;;5126787;29;20027;-76
2023/10/28 05:23:59;;;;;;;42.20;11.98;;;19.00;99.90;;;;;;5126803;29;20023;-75
2023/10/28 05:26:30;;;;;;;31.95;11.95;;;19.00;99.90;;;;;;5126666;29;20015;-75
2023/10/28 05:29:01;;;;;;;39.47;12.90;;;19.10;99.90;;;;;;5126734;29;20086;-76
2023/10/28 05:31:32;;;;;;;34.95;13.20;;;19.10;99.90;;;;;;5126901;29;20070;-76
2023/10/28 05:34:03;;;;;;;31.58;12.93;;;19.20;99.90;;;;;;5126883;29;20143;-76
2023/10/28 05:36:34;;;;;;;38.40;13.13;;;19.40;99.90;;;;;;5109151;29;20117;-75
2023/10/28 05:39:05;;;;;;;37.55;14.27;;;19.40;99.90;;;;;;5126456;29;20037;-76
2023/10/28 05:41:35;;;;;;;30.67;10.75;;;19.70;99.90;;;;;;5126332;29;20031;-73
2023/10/28 05:44:06;;;;;;;29.85;10.80;;;20.10;99.90;;;;;;5126335;29;20041;-76
2023/10/28 05:46:37;;;;;;;32.50;10.75;;;20.60;99.90;;;;;;5126230;29;20080;-74
2023/10/28 05:49:10;;;;;;;30.17;10.73;;;20.90;99.90;;;;;;5115285;28;20037;-75
2023/10/28 05:51:43;;;;;;;22.92;10.63;;;20.80;99.90;;;;;;5146013;28;20035;-76
2023/10/28 05:54:13;;;;;;;38.20;10.57;;;20.80;99.90;;;;;;5145716;28;20027;-76
2023/10/28 05:56:44;;;;;;;24.20;9.90;;;20.90;99.90;;;;;;5145310;28;20387;-75
2023/10/28 05:59:15;;;;;;;28.55;9.75;;;20.90;99.90;;;;;;5145288;28;20023;-75
2023/10/28 06:01:46;;;;;;;27.58;10.23;;;21.00;99.90;;;;;;5144721;28;20360;-75
2023/10/28 06:04:21;;;;;;;28.13;10.85;;;21.20;99.90;;;;;;5144765;28;20081;-75
2023/10/28 06:06:51;;;;;;;25.98;10.77;;;21.20;99.90;;;;;;5144659;28;20085;-75
2023/10/28 06:09:23;;;;;;;24.20;9.98;;;21.20;99.90;;;;;;5143849;28;20496;-76
2023/10/28 06:11:54;;;;;;;27.38;11.43;;;21.30;99.90;;;;;;5144417;28;20472;-76
2023/10/28 06:14:25;;;;;;;36.45;11.43;;;21.30;99.90;;;;;;5144904;28;20434;-74
2023/10/28 06:16:57;;;;;;;28.45;11.00;;;21.20;99.90;;;;;;5145669;28;20031;-73
2023/10/28 06:19:27;;;;;;;24.90;10.40;;;21.20;99.90;;;;;;5145795;28;20023;-75
2023/10/28 06:21:58;;;;;;;26.23;10.00;;;21.10;99.90;;;;;;5145711;28;20027;-72
2023/10/28 06:24:29;;;;;;;23.70;10.77;;;21.20;99.90;;;;;;5157283;28;20065;-76
2023/10/28 06:27:02;;;;;;;28.23;10.60;;;21.10;99.90;;;;;;5164654;28;20026;-75
2023/10/28 06:29:33;;;;;;;24.65;10.00;;;21.20;99.90;;;;;;5165297;28;20033;-75
2023/10/28 06:32:06;;;;;;;27.63;10.07;;;21.30;99.90;;;;;;5165533;28;20034;-73
2023/10/28 06:34:38;;;;;;;21.25;10.63;;;21.40;99.90;;;;;;5165463;28;20050;-75
2023/10/28 06:37:09;;;;;;;25.10;10.38;;;21.50;99.90;;;;;;5160075;28;20090;-72
2023/10/28 06:39:40;;;;;;;20.02;8.93;;;21.70;99.90;;;;;;5144676;28;20107;-75
2023/10/28 06:42:11;;;;;;;28.45;9.55;;;21.80;99.90;;;;;;5144683;28;20035;-75
2023/10/28 06:44:43;;;;;;;30.75;9.30;;;22.10;99.90;;;;;;5145788;28;20034;-74
2023/10/28 06:47:14;;;;;;;24.98;8.93;;;22.00;99.90;;;;;;5145563;28;20538;-76
2023/10/28 06:49:44;;;;;;;24.88;9.90;;;22.10;99.90;;;;;;5145466;28;20098;-76
2023/10/28 06:52:15;;;;;;;20.35;8.60;;;22.20;99.90;;;;;;5144567;28;20379;-75
2023/10/28 06:54:46;;;;;;;19.88;9.70;;;22.30;99.90;;;;;;5144653;28;20034;-75
2023/10/28 06:57:17;;;;;;;20.30;8.18;;;22.40;99.90;;;;;;5143713;28;20062;-72
2023/10/28 06:59:48;;;;;;;18.80;7.65;;;22.60;99.90;;;;;;5143669;28;20070;-72
2023/10/28 07:02:18;;;;;;;21.42;7.30;;;22.60;99.90;;;;;;5143783;28;20054;-72
2023/10/28 07:04:50;;;;;;;20.20;7.68;;;22.60;99.90;;;;;;5143478;28;20659;-75
2023/10/28 07:07:23;;;;;;;19.38;7.93;;;22.70;99.90;;;;;;5143430;28;20029;-75
2023/10/28 07:09:53;;;;;;;21.25;8.98;;;22.70;99.90;;;;;;5143716;28;20062;-73
2023/10/28 07:12:24;;;;;;;17.50;8.65;;;22.50;99.90;;;;;;5144071;28;20789;-73
2023/10/28 07:14:56;;;;;;;15.93;9.13;;;22.80;99.90;;;;;;5144430;28;20089;-72
2023/10/28 07:17:27;;;;;;;22.10;9.70;;;22.80;99.90;;;;;;5144572;28;20031;-74
2023/10/28 07:19:57;;;;;;;21.30;10.73;;;22.90;99.90;;;;;;5144584;28;20031;-73
2023/10/28 07:22:28;;;;;;;20.42;9.63;;;23.00;99.90;;;;;;5144527;28;20470;-73
2023/10/28 07:24:59;;;;;;;15.18;8.55;;;23.10;99.90;;;;;;5144474;28;20100;-73
2023/10/28 07:27:31;;;;;;;21.05;9.25;;;23.20;99.90;;;;;;5144365;28;20037;-75
2023/10/28 07:30:02;;;;;;;14.38;7.18;;;23.30;99.90;;;;;;5144241;28;20089;-75
2023/10/28 07:32:33;;;;;;;17.35;9.38;;;23.50;99.90;;;;;;5144310;28;20561;-73
2023/10/28 07:35:06;;;;;;;15.15;11.05;;;23.50;99.90;;;;;;5144212;28;20035;-73
2023/10/28 07:37:37;;;;;;;15.70;10.05;;;23.50;99.90;;;;;;5144105;28;20022;-73
2023/10/28 07:40:11;;;;;;;20.77;10.15;;;23.60;99.90;;;;;;5144372;28;20093;-74
2023/10/28 07:42:44;;;;;;;18.30;8.80;;;23.50;99.90;;;;;;5144273;28;20058;-74
2023/10/28 07:45:14;;;;;;;16.38;8.27;;;23.60;99.90;;;;;;5144363;28;20039;-71
2023/10/28 07:47:45;;;;;;;16.25;7.47;;;23.60;99.90;;;;;;5143916;28;20379;-75
2023/10/28 07:50:16;;;;;;;19.20;7.68;;;23.60;99.90;;;;;;5144164;28;20041;-76
2023/10/28 07:52:47;;;;;;;18.92;8.55;;;23.60;99.90;;;;;;5143126;28;20542;-73
2023/10/28 07:55:18;;;;;;;14.00;7.18;;;23.60;99.90;;;;;;5142960;28;20487;-74
2023/10/28 07:57:49;;;;;;;14.90;7.57;;;23.60;99.90;;;;;;5143158;28;20494;-72
2023/10/28 08:00:20;;;;;;;14.38;6.97;;;23.60;99.90;;;;;;5143149;28;20058;-75
2023/10/28 08:02:53;;;;;;;17.05;7.35;;;23.60;99.90;;;;;;5142919;28;20066;-72
2023/10/28 08:05:26;;;;;;;13.60;7.88;;;23.60;99.90;;;;;;5142730;28;20076;-73
2023/10/28 08:07:57;;;;;;;14.50;8.40;;;23.70;99.90;;;;;;5143988;28;20023;-75
2023/10/28 08:10:28;;;;;;;15.40;8.18;;;23.80;99.90;;;;;;5143729;28;20415;-74
2023/10/28 08:13:00;;;;;;;17.35;8.32;;;23.80;99.90;;;;;;5144029;28;20038;-73
2023/10/28 08:15:31;;;;;;;14.65;8.68;;;23.90;99.90;;;;;;5143754;28;20045;-72
2023/10/28 08:18:02;;;;;;;15.07;8.00;;;24.10;99.90;;;;;;5144086;28;20019;-73
2023/10/28 08:20:34;;;;;;;15.18;7.72;;;24.20;99.90;;;;;;5143955;28;20027;-73
2023/10/28 08:23:04;;;;;;;13.20;5.10;;;24.50;99.90;;;;;;5144837;28;20022;-72
2023/10/28 08:25:35;;;;;;;11.50;5.05;;;24.60;99.90;;;;;;5147793;28;20121;-75
2023/10/28 08:28:06;;;;;;;14.07;5.93;;;24.90;99.90;;;;;;5147871;28;20375;-72
2023/10/28 08:30:37;;;;;;;14.85;6.68;;;24.90;99.90;;;;;;5147763;28;20031;-73
2023/10/28 08:33:08;;;;;;;13.70;6.32;;;24.80;99.90;;;;;;5147669;28;20122;-74
2023/10/28 08:35:39;;;;;;;14.50;6.70;;;25.00;99.90;;;;;;5147517;28;20375;-72
2023/10/28 08:38:10;;;;;;;14.52;6.88;;;25.10;99.90;;;;;;5147489;28;20023;-72
2023/10/28 08:40:44;;;;;;;15.05;6.85;;;25.40;99.90;;;;;;5147648;28;20407;-72
2023/10/28 08:43:19;;;;;;;14.43;6.40;;;25.50;99.90;;;;;;5146817;28;20038;-75
2023/10/28 08:45:51;;;;;;;13.40;6.68;;;25.60;99.90;;;;;;5147230;28;20019;-75
2023/10/28 08:48:23;;;;;;;11.98;6.70;;;25.50;99.90;;;;;;5146208;28;20030;-74
2023/10/28 08:50:59;;;;;;;30.33;7.97;;;25.60;99.90;;;;;;5146051;28;20042;-73
2023/10/28 08:53:33;;;;;;;22.02;7.45;;;25.60;99.90;;;;;;5146375;28;20022;-74
2023/10/28 08:56:05;;;;;;;17.02;7.72;;;25.50;99.90;;;;;;5129005;28;20099;-72
2023/10/28 08:58:37;;;;;;;12.82;7.13;;;25.60;99.90;;;;;;5146083;28;20545;-72
2023/10/28 09:01:08;;;;;;;11.15;6.50;;;25.60;99.90;;;;;;5146251;28;20030;-76
2023/10/28 09:03:40;;;;;;;13.70;7.05;;;25.70;99.90;;;;;;5129991;28;20031;-72
2023/10/28 09:06:11;;;;;;;12.48;7.07;;;26.00;99.90;;;;;;5147261;28;20051;-74
2023/10/28 09:08:42;;;;;;;12.35;5.90;;;26.00;99.90;;;;;;5146847;28;20490;-71
2023/10/28 09:11:13;;;;;;;13.60;7.18;;;26.00;99.90;;;;;;5147051;28;20039;-72
2023/10/28 09:13:47;;;;;;;14.45;6.28;;;25.90;99.90;;;;;;5147558;28;20383;-74
2023/10/28 09:16:18;;;;;;;10.65;6.47;;;25.80;99.90;;;;;;5147322;28;20082;-71
2023/10/28 09:18:49;;;;;;;10.55;6.25;;;25.60;99.90;;;;;;5147001;28;20493;-72
2023/10/28 09:21:20;;;;;;;13.32;6.13;;;25.70;99.90;;;;;;5146937;28;20035;-73
2023/10/28 09:23:51;;;;;;;17.52;6.80;;;25.90;99.90;;;;;;5146852;28;20031;-72
2023/10/28 09:26:22;;;;;;;16.33;6.97;;;25.90;99.90;;;;;;5146807;28;20561;-74
2023/10/28 09:28:52;;;;;;;12.02;5.75;;;25.80;99.90;;;;;;5146840;28;20066;-71
2023/10/28 09:31:25;;;;;;;14.93;6.80;;;25.80;99.90;;;;;;5146490;28;20118;-72
2023/10/28 09:33:57;;;;;;;13.48;6.22;;;25.80;99.90;;;;;;5146943;28;20089;-73
2023/10/28 09:36:29;;;;;;;14.65;5.95;;;25.80;99.90;;;;;;5146325;28;20007;-74
2023/10/28 09:39:00;;;;;;;12.00;5.47;;;25.60;99.90;;;;;;5146526;28;20030;-73
2023/10/28 09:41:32;;;;;;;16.85;7.30;;;26.10;99.90;;;;;;5146382;28;20089;-72
2023/10/28 09:44:03;;;;;;;12.65;6.72;;;26.00;99.90;;;;;;5145345;28;20035;-74
2023/10/28 09:46:36;;;;;;;15.60;8.63;;;26.30;99.90;;;;;;5145105;28;20021;-73
2023/10/28 09:49:09;;;;;;;14.43;7.72;;;26.50;99.90;;;;;;5145013;28;20481;-73
2023/10/28 09:51:40;;;;;;;14.77;8.15;;;26.10;99.90;;;;;;5144874;28;20671;-73
2023/10/28 09:54:19;;;;;;;15.07;8.68;;;26.00;99.90;;;;;;5145045;28;20027;-73
2023/10/28 09:56:52;;;;;;;14.63;7.03;;;26.00;99.90;;;;;;5145248;28;20359;-75
2023/10/28 09:59:24;;;;;;;13.02;8.07;;;26.00;99.90;;;;;;5145954;28;20065;-72
2023/10/28 10:02:27;;;;;;;17.75;8.55;;;26.30;99.90;;;;;;5146210;28;20015;-74
2023/10/28 10:04:59;;;;;;;12.98;6.47;;;26.40;99.90;;;;;;5141785;28;20046;-72
2023/10/28 10:07:30;;;;;;;11.88;6.18;;;26.50;99.90;;;;;;5145787;28;20027;-72
2023/10/28 10:10:13;;;;;;;10.55;5.95;;;26.60;99.90;;;;;;5128083;28;20053;-74
2023/10/28 10:12:44;;;;;;;13.50;5.68;;;26.60;99.90;;;;;;5145625;28;20027;-73
2023/10/28 10:15:19;;;;;;;17.67;7.47;;;26.40;99.90;;;;;;5145741;28;20014;-73
2023/10/28 10:18:07;;;;;;;14.57;6.88;;;26.40;99.90;;;;;;5128365;28;20499;-75
2023/10/28 10:20:43;;;;;;;18.23;7.22;;;26.40;99.90;;;;;;5145718;28;20034;-73
2023/10/28 10:23:14;;;;;;;14.38;6.80;;;26.40;99.90;;;;;;5145637;28;20019;-73
2023/10/28 10:25:46;;;;;;;14.05;6.43;;;26.40;99.90;;;;;;5145699;28;20029;-73
2023/10/28 10:28:19;;;;;;;13.93;6.10;;;26.40;99.90;;;;;;5145732;28;20499;-74
2023/10/28 10:30:51;;;;;;;15.07;7.03;;;26.50;99.90;;;;;;5145499;28;20791;-72
2023/10/28 10:33:26;;;;;;;12.75;5.88;;;26.70;99.90;;;;;;5145380;28;20475;-73
2023/10/28 10:35:56;;;;;;;16.90;6.47;;;26.60;99.90;;;;;;5127484;28;20367;-73
2023/10/28 10:38:29;;;;;;;12.93;6.07;;;26.60;99.90;;;;;;5144529;28;20033;-74
2023/10/28 10:41:00;;;;;;;11.50;6.72;;;26.70;99.90;;;;;;5144167;28;20379;-73
2023/10/28 10:43:32;;;;;;;18.02;6.10;;;26.70;99.90;;;;;;5144466;28;20554;-75
2023/10/28 10:46:03;;;;;;;14.38;6.72;;;26.60;99.90;;;;;;5143543;28;20031;-73
2023/10/28 10:48:36;;;;;;;13.50;6.35;;;26.60;99.90;;;;;;5143492;28;20023;-72
2023/10/28 10:51:07;;;;;;;13.73;6.53;;;26.70;99.90;;;;;;5143928;28;20057;-73
2023/10/28 10:53:42;;;;;;;12.55;6.22;;;26.90;99.90;;;;;;5144360;28;20038;-74
2023/10/28 10:56:20;;;;;;;13.77;6.03;;;27.30;99.90;;;;;;5127621;28;20058;-73
2023/10/28 10:58:51;;;;;;;10.63;6.00;;;27.50;99.90;;;;;;5127652;28;20030;-75
2023/10/28 11:01:22;;;;;;;12.32;7.10;;;27.00;99.90;;;;;;5145111;28;20034;-72
2023/10/28 11:03:52;;;;;;;14.95;7.25;;;27.40;99.90;;;;;;5144982;28;20022;-72
2023/10/28 11:06:26;;;;;;;14.13;7.30;;;27.40;99.90;;;;;;5144845;28;20023;-73
2023/10/28 11:09:01;;;;;;;15.95;7.68;;;27.30;99.90;;;;;;5144499;28;20045;-72
2023/10/28 11:11:38;;;;;;;13.63;8.23;;;27.30;99.90;;;;;;5144727;28;20055;-72
2023/10/28 11:14:09;;;;;;;14.75;8.05;;;27.50;99.90;;;;;;5144988;28;20026;-73
2023/10/28 11:16:41;;;;;;;15.68;9.02;;;27.50;99.90;;;;;;5144845;28;20042;-73
2023/10/28 11:19:12;;;;;;;17.52;9.85;;;27.50;99.90;;;;;;5144718;28;20042;-73
2023/10/28 11:21:44;;;;;;;13.55;9.98;;;27.70;99.90;;;;;;5144633;28;20023;-72
2023/10/28 11:24:16;;;;;;;15.55;9.90;;;27.70;99.90;;;;;;5144502;28;20049;-73
2023/10/28 11:26:46;;;;;;;31.60;9.73;;;27.70;99.90;;;;;;5144527;28;20031;-73
2023/10/28 11:29:17;;;;;;;13.55;9.95;;;27.70;99.90;;;;;;5144365;28;20026;-72
2023/10/28 11:31:49;;;;;;;14.00;9.75;;;27.40;99.90;;;;;;5143684;28;20035;-73
2023/10/28 11:34:20;;;;;;;15.45;9.63;;;27.40;99.90;;;;;;5143712;28;20170;-74
2023/10/28 11:36:55;;;;;;;12.40;8.95;;;27.20;99.90;;;;;;5143212;28;20101;-73
2023/10/28 11:39:26;;;;;;;14.27;9.48;;;27.20;99.90;;;;;;5125815;28;20189;-75
2023/10/28 11:41:57;;;;;;;17.65;9.40;;;27.50;99.90;;;;;;5143283;28;20463;-73
2023/10/28 11:44:28;;;;;;;15.07;9.88;;;27.50;99.90;;;;;;5143356;28;20026;-73
2023/10/28 11:46:59;;;;;;;11.85;8.80;;;27.80;99.90;;;;;;5143035;28;20462;-73
2023/10/28 11:49:30;;;;;;;14.70;7.47;;;27.90;99.90;;;;;;5143421;28;20031;-74
2023/10/28 11:52:01;;;;;;;11.07;7.30;;;27.90;99.90;;;;;;5144066;28;20058;-74
2023/10/28 11:54:33;;;;;;;10.73;7.75;;;27.70;99.90;;;;;;5144322;28;20573;-72
2023/10/28 11:57:04;;;;;;;12.80;7.05;;;27.80;99.90;;;;;;5144220;28;20113;-73
2023/10/28 11:59:35;;;;;;;8.48;6.78;;;28.10;99.90;;;;;;5147853;28;20106;-75
2023/10/28 12:02:07;;;;;;;7.78;6.05;;;28.30;99.90;;;;;;5148451;28;20054;-72
2023/10/28 12:04:38;;;;;;;12.95;6.05;;;28.20;99.90;;;;;;5148476;28;20549;-73
2023/10/28 12:07:09;;;;;;;11.70;5.35;;;28.30;99.90;;;;;;5148285;28;20031;-72
2023/10/28 12:09:40;;;;;;;11.65;4.93;;;28.20;99.90;;;;;;5147860;28;20059;-74
2023/10/28 12:12:11;;;;;;;10.02;5.03;;;28.40;99.90;;;;;;5148172;28;20053;-74
2023/10/28 12:14:42;;;;;;;11.82;4.47;;;28.30;99.90;;;;;;5148118;28;20023;-73
2023/10/28 12:17:13;;;;;;;13.10;5.28;;;28.20;99.90;;;;;;5147923;28;20034;-73
2023/10/28 12:19:43;;;;;;;12.57;4.82;;;28.30;99.90;;;;;;5148358;28;20382;-73
2023/10/28 12:22:14;;;;;;;11.25;5.22;;;28.30;99.90;;;;;;5148402;28;20375;-75
2023/10/28 12:24:45;;;;;;;9.65;4.72;;;28.30;99.90;;;;;;5148388;28;20030;-74
2023/10/28 12:27:16;;;;;;;9.88;4.75;;;28.20;99.90;;;;;;5147231;28;20046;-73
2023/10/28 12:29:47;;;;;;;9.13;4.78;;;28.40;99.90;;;;;;5147124;28;20026;-74
2023/10/28 12:32:17;;;;;;;10.82;5.47;;;28.60;99.90;;;;;;5146584;28;20031;-73
2023/10/28 12:37:26;;;;;;;10.75;5.15;;;28.50;99.90;;;;;;5144652;28;20054;-74
2023/10/28 12:39:57;;;;;;;10.32;4.82;;;28.50;99.90;;;;;;5146486;28;20030;-73
2023/10/28 12:42:28;;;;;;;10.00;5.70;;;28.00;99.90;;;;;;5145187;28;20027;-72
2023/10/28 12:44:58;;;;;;;11.27;5.97;;;28.50;99.90;;;;;;5146736;28;20429;-72
2023/10/28 12:47:30;;;;;;;13.25;6.07;;;27.80;99.90;;;;;;5147538;28;20019;-72
2023/10/28 12:50:03;;;;;;;9.20;5.30;;;27.80;99.90;;;;;;5147580;28;20030;-74
2023/10/28 12:52:34;;;;;;;10.38;6.32;;;27.70;99.90;;;;;;5147440;28;20030;-72
2023/10/28 12:55:05;;;;;;;9.15;5.90;;;27.40;99.90;;;;;;5147467;28;20019;-74
2023/10/28 12:57:36;;;;;;;10.02;6.07;;;27.50;99.90;;;;;;5147493;28;20121;-73